createdAt,value
2023-05-10T00:03:34.111Z,100.00
2023-05-10T00:13:35.962Z,100.00
2023-05-10T00:23:37.760Z,100.00
2023-05-10T00:33:45.651Z,100.00
2023-05-10T00:43:48.743Z,100.00
2023-05-10T00:53:52.595Z,100.00
2023-05-10T01:03:57.013Z,100.00
2023-05-10T01:13:59.621Z,100.00
2023-05-10T01:24:23.140Z,100.00
2023-05-10T01:35:03.980Z,100.00
2023-05-10T01:45:26.785Z,100.00
2023-05-10T01:55:35.853Z,100.00
2023-05-10T02:05:45.617Z,100.00
2023-05-10T02:15:51.985Z,100.00
2023-05-10T02:26:07.735Z,100.00
2023-05-10T02:36:11.677Z,100.00
2023-05-10T02:46:13.579Z,100.00
2023-05-10T02:56:30.000Z,100.00
2023-05-10T03:06:32.527Z,100.00
2023-05-10T03:16:48.076Z,100.00
2023-05-10T03:26:51.726Z,100.00
2023-05-10T03:36:53.618Z,100.00
2023-05-10T03:46:59.296Z,100.00
2023-05-10T03:57:02.053Z,100.00
2023-05-10T04:07:05.088Z,100.00
2023-05-10T04:17:06.957Z,100.00
2023-05-10T04:27:14.853Z,100.00
2023-05-10T04:37:16.638Z,100.00
2023-05-10T04:47:21.530Z,100.00
2023-05-10T04:57:23.418Z,100.00
2023-05-10T05:07:27.691Z,100.00
2023-05-10T05:17:32.619Z,100.00
2023-05-10T05:27:34.730Z,100.00
2023-05-10T05:37:36.606Z,100.00
2023-05-10T05:47:38.211Z,100.00
2023-05-10T05:57:39.935Z,100.00
2023-05-10T06:07:43.928Z,98.67
2023-05-10T06:17:48.406Z,98.61
2023-05-10T06:27:53.682Z,91.04
2023-05-10T06:37:56.224Z,89.22
2023-05-10T06:47:57.968Z,91.44
2023-05-10T06:58:00.795Z,84.21
2023-05-10T07:08:02.851Z,84.90
2023-05-10T07:18:05.700Z,74.30
2023-05-10T07:28:08.706Z,69.85
2023-05-10T07:38:16.292Z,64.79
2023-05-10T07:48:17.997Z,63.08
2023-05-10T07:58:20.420Z,59.27
2023-05-10T08:08:25.319Z,55.37
2023-05-10T08:18:27.145Z,58.42
2023-05-10T08:28:28.874Z,60.61
2023-05-10T08:38:30.815Z,58.06
2023-05-10T08:48:35.479Z,53.77
2023-05-10T08:58:39.255Z,52.86
2023-05-10T09:08:42.782Z,51.93
2023-05-10T09:18:46.721Z,45.04
2023-05-10T09:28:52.508Z,42.67
2023-05-10T09:39:01.591Z,37.56
2023-05-10T09:49:03.242Z,42.48
2023-05-10T09:59:05.934Z,43.24
2023-05-10T10:09:08.966Z,39.88
2023-05-10T10:19:11.399Z,38.17
2023-05-10T10:29:28.514Z,27.47
2023-05-10T10:39:32.580Z,35.29
2023-05-10T10:49:40.164Z,35.43
2023-05-10T10:59:45.642Z,27.03
2023-05-10T11:09:48.499Z,28.24
2023-05-10T11:20:10.781Z,23.53
2023-05-10T11:30:14.053Z,26.16
2023-05-10T11:40:30.953Z,29.81
2023-05-10T11:50:33.981Z,34.40
2023-05-10T12:00:36.772Z,35.95
2023-05-10T12:10:40.051Z,36.95
2023-05-10T12:20:42.623Z,35.63
2023-05-10T12:30:46.094Z,35.59
2023-05-10T12:40:49.935Z,36.61
2023-05-10T12:50:57.584Z,35.86
2023-05-10T13:01:01.324Z,35.65
2023-05-10T13:11:04.247Z,32.77
2023-05-10T13:21:06.457Z,28.26
2023-05-10T13:31:09.539Z,26.39
2023-05-10T13:41:12.229Z,23.80
2023-05-10T13:51:14.766Z,27.32
2023-05-10T14:01:16.393Z,28.14
2023-05-10T14:11:18.597Z,24.42
2023-05-10T14:21:21.576Z,18.07
2023-05-10T14:31:25.583Z,20.68
2023-05-10T14:41:27.313Z,19.19
2023-05-10T14:51:28.999Z,26.80
2023-05-10T15:01:37.862Z,32.01
2023-05-10T15:11:40.072Z,33.34
2023-05-10T15:21:44.449Z,33.02
2023-05-10T15:31:48.144Z,29.11
2023-05-10T15:41:49.889Z,31.82
2023-05-10T15:51:51.646Z,34.83
2023-05-10T16:02:02.326Z,34.51
2023-05-10T16:12:08.593Z,35.91
2023-05-10T16:22:10.430Z,35.30
2023-05-10T16:32:14.710Z,33.22
2023-05-10T16:42:16.499Z,34.66
2023-05-10T16:52:18.465Z,38.90
2023-05-10T17:02:30.325Z,41.80
2023-05-10T17:12:32.315Z,42.94
2023-05-10T17:22:34.121Z,43.29
2023-05-10T17:32:35.950Z,44.28
2023-05-10T17:42:37.764Z,45.40
2023-05-10T17:52:39.705Z,46.44
2023-05-10T18:02:42.653Z,48.27
2023-05-10T18:12:46.484Z,49.47
2023-05-10T18:22:48.205Z,49.47
2023-05-10T18:32:50.216Z,49.54
2023-05-10T18:42:53.101Z,49.83
2023-05-10T18:52:57.769Z,49.57
2023-05-10T19:03:02.653Z,49.64
2023-05-10T19:13:13.027Z,50.32
2023-05-10T19:23:16.889Z,51.06
2023-05-10T19:33:49.680Z,51.96
2023-05-10T19:43:52.227Z,52.62
2023-05-10T19:53:55.751Z,53.17
2023-05-10T20:04:01.053Z,53.42
2023-05-10T20:14:05.086Z,54.34
2023-05-10T20:24:11.366Z,54.18
2023-05-10T20:34:13.697Z,53.98
2023-05-10T20:54:49.080Z,54.21
2023-05-10T21:04:57.988Z,53.68
2023-05-10T21:14:59.980Z,52.77
2023-05-10T21:25:02.257Z,53.63
2023-05-10T21:35:05.532Z,53.44
2023-05-10T21:45:08.064Z,53.70
2023-05-10T21:55:10.137Z,53.40
2023-05-10T22:05:11.804Z,54.43
2023-05-10T22:15:13.632Z,53.67
2023-05-10T22:25:15.564Z,53.84
2023-05-10T22:35:17.570Z,53.72
2023-05-10T22:45:21.865Z,54.74
2023-05-10T22:55:25.821Z,56.67
2023-05-10T23:05:43.118Z,58.31
2023-05-10T23:15:46.014Z,58.94
2023-05-10T23:25:54.050Z,60.22
2023-05-10T23:36:00.944Z,61.07
2023-05-10T23:46:02.799Z,62.18
2023-05-10T23:56:05.337Z,63.93
